Time;durP1;ratioP1;P1;durP2;ratioP2;P2;SDS_P1;SDS_P2;PMS_P1;PMS_P2;Temp;Humidity;BMP_temperature;BMP_pressure;BME280_temperature;BME280_humidity;BME280_pressure;Samples;Min_cycle;Max_cycle;Signal;HPM_P1;HPM_P2
2024/04/19 00:00:30;;;;;;;6.95;2.10;;;;;;;;;;5383806;26;20008;-55
2024/04/19 00:02:55;;;;;;;7.75;2.22;;;;;;;;;;5383307;26;20395;-53
2024/04/19 00:05:20;;;;;;;9.95;2.42;;;;;;;;;;5383603;26;20352;-53
2024/04/19 00:07:45;;;;;;;8.60;2.03;;;;;;;;;;5384417;26;20446;-54
2024/04/19 00:10:11;;;;;;;8.65;2.20;;;;;;;;;;5383087;26;20004;-53
2024/04/19 00:12:36;;;;;;;5.75;1.77;;;;;;;;;;5383186;26;19997;-55
2024/04/19 00:15:01;;;;;;;6.45;2.05;;;;;;;;;;5405983;26;20000;-53
2024/04/19 00:17:26;;;;;;;8.07;1.90;;;;;;;;;;5418738;26;20297;-56
2024/04/19 00:19:52;;;;;;;5.88;2.17;;;;;;;;;;5418693;26;19999;-56
2024/04/19 00:22:18;;;;;;;7.35;2.05;;;;;;;;;;5415744;26;20003;-55
2024/04/19 00:24:44;;;;;;;6.97;2.17;;;;;;;;;;5384859;26;20230;-53
2024/04/19 00:27:09;;;;;;;10.65;2.03;;;;;;;;;;5385509;26;20441;-55
2024/04/19 00:29:34;;;;;;;6.38;2.10;;;;;;;;;;5384021;26;20004;-52
2024/04/19 00:31:59;;;;;;;8.23;2.10;;;;;;;;;;5383468;26;20056;-55
2024/04/19 00:34:25;;;;;;;7.80;2.42;;;;;;;;;;5383245;26;19988;-57
2024/04/19 00:36:50;;;;;;;12.30;2.38;;;;;;;;;;5383119;26;19996;-53
2024/04/19 00:39:15;;;;;;;12.95;2.78;;;;;;;;;;5383851;26;19996;-57
2024/04/19 00:41:40;;;;;;;6.97;2.33;;;;;;;;;;5382108;26;19999;-56
2024/04/19 00:44:05;;;;;;;7.22;2.30;;;;;;;;;;5392023;26;20043;-56
2024/04/19 00:46:31;;;;;;;7.28;2.58;;;;;;;;;;5396730;26;19992;-53
2024/04/19 00:48:57;;;;;;;8.30;2.58;;;;;;;;;;5418885;26;19995;-54
2024/04/19 00:51:22;;;;;;;10.40;3.17;;;;;;;;;;5418752;26;19999;-53
2024/04/19 00:53:47;;;;;;;7.60;2.33;;;;;;;;;;5418902;26;19987;-57
2024/04/19 00:56:13;;;;;;;10.80;2.45;;;;;;;;;;5411741;26;20000;-54
2024/04/19 00:58:38;;;;;;;9.63;2.38;;;;;;;;;;5390198;26;20403;-56
2024/04/19 01:01:04;;;;;;;7.90;2.83;;;;;;;;;;5418175;26;20400;-53
2024/04/19 01:03:29;;;;;;;8.55;2.55;;;;;;;;;;5417920;26;19988;-52
2024/04/19 01:05:54;;;;;;;9.60;2.58;;;;;;;;;;5415878;26;20007;-55
2024/04/19 01:08:19;;;;;;;11.40;2.53;;;;;;;;;;5417856;26;19991;-55
2024/04/19 01:10:45;;;;;;;9.55;2.17;;;;;;;;;;5395324;26;19992;-55
2024/04/19 01:13:10;;;;;;;9.38;2.30;;;;;;;;;;5383039;26;20357;-55
2024/04/19 01:15:36;;;;;;;8.32;2.42;;;;;;;;;;5384513;26;20440;-55
2024/04/19 01:18:01;;;;;;;8.63;2.60;;;;;;;;;;5382461;26;19999;-56
2024/04/19 01:20:26;;;;;;;10.18;2.92;;;;;;;;;;5351784;26;20023;-56
2024/04/19 01:22:51;;;;;;;8.55;2.50;;;;;;;;;;5382579;26;20011;-53
2024/04/19 01:25:21;;;;;;;7.18;2.78;;;;;;;;;;5405813;26;20014;-56
2024/04/19 01:27:46;;;;;;;9.15;2.55;;;;;;;;;;5417083;26;19996;-57
2024/04/19 01:30:11;;;;;;;9.65;3.05;;;;;;;;;;5417701;26;20271;-55
2024/04/19 01:32:37;;;;;;;8.05;2.85;;;;;;;;;;5383066;26;20281;-53
2024/04/19 01:35:02;;;;;;;6.80;2.50;;;;;;;;;;5399290;26;20395;-53
2024/04/19 01:37:27;;;;;;;11.27;2.83;;;;;;;;;;5417664;26;20026;-55
2024/04/19 01:39:52;;;;;;;11.15;3.03;;;;;;;;;;5417587;26;20042;-54
2024/04/19 01:42:18;;;;;;;9.52;3.13;;;;;;;;;;5417567;26;20002;-56
2024/04/19 01:44:43;;;;;;;7.32;2.85;;;;;;;;;;5417595;26;19995;-55
2024/04/19 01:47:08;;;;;;;6.55;2.60;;;;;;;;;;5388031;26;19996;-54
2024/04/19 01:49:33;;;;;;;6.10;2.28;;;;;;;;;;5402490;26;20388;-55
2024/04/19 01:51:58;;;;;;;6.75;2.45;;;;;;;;;;5418657;26;20015;-55
2024/04/19 01:54:24;;;;;;;8.15;2.75;;;;;;;;;;5420937;26;19991;-55
2024/04/19 01:56:50;;;;;;;7.68;2.70;;;;;;;;;;5420622;26;20289;-52
2024/04/19 01:59:15;;;;;;;7.28;2.90;;;;;;;;;;5420619;26;20416;-52
2024/04/19 02:01:41;;;;;;;7.55;2.75;;;;;;;;;;5396632;26;20010;-52
2024/04/19 02:04:06;;;;;;;9.80;3.65;;;;;;;;;;5389575;26;19996;-53
2024/04/19 02:06:31;;;;;;;7.53;3.22;;;;;;;;;;5421421;26;19991;-55
2024/04/19 02:08:56;;;;;;;8.30;3.20;;;;;;;;;;5420684;26;20352;-56
2024/04/19 02:11:22;;;;;;;8.20;2.92;;;;;;;;;;5420778;26;19988;-53
2024/04/19 02:13:47;;;;;;;9.80;3.40;;;;;;;;;;5420677;26;20118;-53
2024/04/19 02:16:12;;;;;;;7.68;3.72;;;;;;;;;;5407710;26;20063;-53
2024/04/19 02:18:37;;;;;;;9.65;3.60;;;;;;;;;;5385331;26;20010;-55
2024/04/19 02:21:03;;;;;;;7.72;4.00;;;;;;;;;;5384857;26;19993;-56
2024/04/19 02:23:34;;;;;;;9.40;4.00;;;;;;;;;;5385240;26;20000;-55
2024/04/19 02:25:59;;;;;;;6.88;3.42;;;;;;;;;;5384955;26;20384;-55
2024/04/19 02:31:09;;;;;;;7.68;4.10;;;;;;;;;;5407206;26;20014;-56
2024/04/19 02:33:34;;;;;;;8.43;3.78;;;;;;;;;;5388546;26;20000;-55
2024/04/19 02:35:59;;;;;;;8.95;4.43;;;;;;;;;;5420519;26;19991;-56
2024/04/19 02:38:24;;;;;;;10.55;4.55;;;;;;;;;;5420646;26;20007;-56
2024/04/19 02:40:50;;;;;;;8.75;4.22;;;;;;;;;;5420420;26;19995;-53
2024/04/19 02:43:15;;;;;;;6.90;4.43;;;;;;;;;;5386619;26;20401;-56
2024/04/19 02:45:43;;;;;;;8.32;4.75;;;;;;;;;;5405195;26;20025;-54
2024/04/19 02:48:08;;;;;;;9.23;4.75;;;;;;;;;;5386186;26;20287;-54
2024/04/19 02:50:34;;;;;;;7.80;4.50;;;;;;;;;;5385084;26;20003;-56
2024/04/19 02:52:59;;;;;;;10.13;4.50;;;;;;;;;;5385101;26;20018;-55
2024/04/19 02:55:24;;;;;;;11.02;5.70;;;;;;;;;;5385303;26;20420;-56
2024/04/19 02:57:50;;;;;;;12.02;6.05;;;;;;;;;;5385041;26;19996;-57
2024/04/19 03:00:15;;;;;;;8.38;4.78;;;;;;;;;;5392372;26;20011;-56
2024/04/19 03:02:41;;;;;;;11.32;5.10;;;;;;;;;;5422778;21;20022;-89
2024/04/19 03:05:11;;;;;;;7.47;4.55;;;;;;;;;;5389013;26;20143;-89
2024/04/19 03:07:36;;;;;;;9.85;5.03;;;;;;;;;;5389002;26;20292;-90
2024/04/19 03:10:03;;;;;;;10.18;4.75;;;;;;;;;;5388336;26;20004;-89
2024/04/19 03:12:31;;;;;;;9.80;4.82;;;;;;;;;;5421175;26;20057;-90
2024/04/19 03:14:56;;;;;;;8.75;4.68;;;;;;;;;;5386881;26;20447;-90
2024/04/19 03:17:24;;;;;;;8.93;4.82;;;;;;;;;;5389960;26;20010;-90
2024/04/19 03:19:51;;;;;;;7.95;4.50;;;;;;;;;;5421163;26;19995;-90
2024/04/19 03:22:18;;;;;;;7.50;4.75;;;;;;;;;;5390235;26;19992;-89
2024/04/19 03:24:43;;;;;;;10.77;5.35;;;;;;;;;;5390226;26;20007;-90
2024/04/19 03:27:10;;;;;;;10.70;5.07;;;;;;;;;;5421013;26;20060;-90
2024/04/19 03:29:37;;;;;;;10.35;5.40;;;;;;;;;;5389642;26;20004;-91
2024/04/19 03:32:03;;;;;;;9.20;4.38;;;;;;;;;;5419899;26;20003;-90
2024/04/19 03:34:33;;;;;;;9.00;5.30;;;;;;;;;;5420165;26;20028;-91
2024/04/19 03:37:01;;;;;;;11.60;5.22;;;;;;;;;;5422216;26;20416;-90
2024/04/19 03:39:26;;;;;;;9.43;4.53;;;;;;;;;;5420312;26;20622;-90
2024/04/19 03:41:53;;;;;;;9.63;5.57;;;;;;;;;;5419517;26;20043;-91
2024/04/19 03:47:05;;;;;;;9.45;4.60;;;;;;;;;;5422655;26;20478;-90
2024/04/19 03:49:33;;;;;;;10.15;4.93;;;;;;;;;;5420975;26;19995;-90
2024/04/19 03:51:59;;;;;;;8.82;5.13;;;;;;;;;;5420261;26;19995;-91
2024/04/19 03:54:25;;;;;;;10.05;4.93;;;;;;;;;;5422098;26;19991;-91
2024/04/19 03:56:53;;;;;;;9.80;5.32;;;;;;;;;;5422134;26;20057;-91
2024/04/19 03:59:21;;;;;;;9.82;4.90;;;;;;;;;;5418616;26;19999;-90
2024/04/19 04:01:48;;;;;;;10.15;4.82;;;;;;;;;;5399768;21;20028;-56
2024/04/19 04:04:16;;;;;;;9.10;4.35;;;;;;;;;;5354474;26;20000;-53
2024/04/19 04:06:42;;;;;;;8.13;4.75;;;;;;;;;;5385065;26;20007;-55
2024/04/19 04:09:09;;;;;;;9.30;4.95;;;;;;;;;;5354203;26;20007;-54
2024/04/19 04:11:35;;;;;;;10.60;4.68;;;;;;;;;;5385317;26;20003;-55
2024/04/19 04:14:00;;;;;;;10.07;5.07;;;;;;;;;;5385913;26;20025;-57
2024/04/19 04:16:27;;;;;;;9.52;5.18;;;;;;;;;;5383077;26;19992;-56
2024/04/19 04:18:54;;;;;;;11.13;4.90;;;;;;;;;;5384962;26;20058;-58
2024/04/19 04:21:20;;;;;;;8.30;5.15;;;;;;;;;;5354270;26;20000;-57
2024/04/19 04:23:47;;;;;;;10.43;5.78;;;;;;;;;;5385201;26;20008;-57
2024/04/19 04:26:12;;;;;;;9.63;5.30;;;;;;;;;;5353774;26;20076;-57
2024/04/19 04:28:39;;;;;;;7.15;4.50;;;;;;;;;;5384217;26;20340;-56
2024/04/19 04:31:05;;;;;;;8.30;4.43;;;;;;;;;;5384202;26;20069;-57
2024/04/19 04:33:32;;;;;;;10.52;4.82;;;;;;;;;;5385204;26;19996;-57
2024/04/19 04:35:58;;;;;;;7.00;4.13;;;;;;;;;;5384744;26;20040;-57
2024/04/19 04:38:24;;;;;;;7.22;4.50;;;;;;;;;;5385056;26;20000;-58
2024/04/19 04:40:51;;;;;;;7.57;4.00;;;;;;;;;;5385044;26;20008;-57
2024/04/19 04:43:17;;;;;;;6.70;3.90;;;;;;;;;;5384947;26;20043;-57
2024/04/19 04:45:44;;;;;;;6.68;4.00;;;;;;;;;;5385047;26;20011;-58
2024/04/19 04:48:12;;;;;;;7.65;3.20;;;;;;;;;;5384324;26;20296;-57
2024/04/19 04:50:40;;;;;;;13.73;4.18;;;;;;;;;;5384805;26;20000;-56
2024/04/19 04:53:06;;;;;;;7.68;3.90;;;;;;;;;;5384958;26;19996;-58
2024/04/19 04:55:33;;;;;;;8.15;3.85;;;;;;;;;;5384823;26;19999;-58
2024/04/19 04:58:00;;;;;;;6.35;3.58;;;;;;;;;;5384062;26;20012;-58
2024/04/19 05:00:29;;;;;;;8.70;3.47;;;;;;;;;;5384511;26;19993;-58
2024/04/19 05:02:57;;;;;;;5.82;2.95;;;;;;;;;;5384822;26;20015;-58
2024/04/19 05:05:24;;;;;;;6.68;2.90;;;;;;;;;;5384072;26;20011;-58
2024/04/19 05:07:51;;;;;;;9.20;3.17;;;;;;;;;;5384909;26;20008;-59
2024/04/19 05:10:17;;;;;;;6.60;3.25;;;;;;;;;;5384903;26;20004;-58
2024/04/19 05:12:42;;;;;;;8.82;3.35;;;;;;;;;;5384362;26;20399;-59
2024/04/19 05:15:08;;;;;;;7.00;2.83;;;;;;;;;;5384105;26;19996;-59
2024/04/19 05:17:38;;;;;;;5.93;2.80;;;;;;;;;;5384143;26;20029;-59
2024/04/19 05:20:03;;;;;;;7.93;3.25;;;;;;;;;;5384064;26;20004;-59
2024/04/19 05:22:29;;;;;;;7.80;3.80;;;;;;;;;;5383955;26;20066;-57
2024/04/19 05:24:55;;;;;;;8.18;3.10;;;;;;;;;;5352983;26;20000;-58
2024/04/19 05:27:21;;;;;;;5.10;2.72;;;;;;;;;;5386881;26;20043;-58
2024/04/19 05:29:48;;;;;;;9.80;3.03;;;;;;;;;;5387793;26;19996;-58
2024/04/19 05:32:14;;;;;;;8.27;3.15;;;;;;;;;;5387658;26;20422;-55
2024/04/19 05:34:42;;;;;;;9.20;4.28;;;;;;;;;;5387410;26;19997;-59
2024/04/19 05:37:08;;;;;;;6.88;3.08;;;;;;;;;;5387763;26;20336;-58
2024/04/19 05:39:35;;;;;;;6.07;3.20;;;;;;;;;;5387602;26;20032;-57
2024/04/19 05:42:01;;;;;;;5.90;3.20;;;;;;;;;;5387876;26;20035;-58
2024/04/19 05:44:31;;;;;;;5.32;2.97;;;;;;;;;;5386902;26;20004;-57
2024/04/19 05:46:58;;;;;;;6.00;3.00;;;;;;;;;;5387623;26;20016;-58
2024/04/19 05:49:24;;;;;;;5.70;3.10;;;;;;;;;;5387598;26;20036;-59
2024/04/19 05:51:51;;;;;;;5.75;2.92;;;;;;;;;;5356391;26;20001;-60
2024/04/19 05:54:18;;;;;;;5.20;3.00;;;;;;;;;;5387395;26;20421;-59
2024/04/19 05:56:44;;;;;;;5.40;3.13;;;;;;;;;;5387440;26;20008;-60
2024/04/19 05:59:11;;;;;;;5.97;3.08;;;;;;;;;;5386330;26;20004;-60
2024/04/19 06:01:36;;;;;;;5.57;2.92;;;;;;;;;;5386390;26;20012;-59
2024/04/19 06:04:04;;;;;;;7.70;3.22;;;;;;;;;;5386896;26;20000;-60
2024/04/19 06:06:31;;;;;;;5.43;2.92;;;;;;;;;;5386870;26;20336;-58
2024/04/19 06:08:56;;;;;;;5.20;2.70;;;;;;;;;;5355832;26;20037;-58
2024/04/19 06:11:22;;;;;;;5.45;3.22;;;;;;;;;;5386780;26;20015;-60
2024/04/19 06:13:49;;;;;;;5.05;3.00;;;;;;;;;;5386377;26;19996;-60
2024/04/19 06:16:14;;;;;;;7.28;3.05;;;;;;;;;;5387078;26;20011;-60
2024/04/19 06:18:41;;;;;;;7.05;3.22;;;;;;;;;;5386643;26;19996;-60
2024/04/19 06:21:06;;;;;;;6.50;3.58;;;;;;;;;;5386622;26;20058;-59
2024/04/19 06:23:32;;;;;;;5.63;3.63;;;;;;;;;;5386986;26;20046;-60
2024/04/19 06:26:04;;;;;;;6.88;3.05;;;;;;;;;;5386838;26;20019;-60
2024/04/19 06:28:34;;;;;;;6.25;3.63;;;;;;;;;;5355497;26;20008;-59
2024/04/19 06:31:09;;;;;;;6.78;3.45;;;;;;;;;;5386462;26;20137;-59
2024/04/19 06:33:34;;;;;;;5.50;3.28;;;;;;;;;;5386276;26;20042;-60
2024/04/19 06:36:00;;;;;;;5.03;3.28;;;;;;;;;;5387263;26;20393;-59
2024/04/19 06:38:25;;;;;;;5.80;3.13;;;;;;;;;;5384282;26;20063;-59
2024/04/19 06:40:50;;;;;;;6.22;3.50;;;;;;;;;;5386572;26;20070;-59
2024/04/19 06:43:17;;;;;;;5.05;3.15;;;;;;;;;;5386721;26;20082;-58
2024/04/19 06:45:43;;;;;;;4.80;3.15;;;;;;;;;;5355819;26;20000;-59
2024/04/19 06:48:10;;;;;;;7.45;4.40;;;;;;;;;;5386553;26;20007;-59
2024/04/19 06:50:35;;;;;;;5.28;3.40;;;;;;;;;;5387018;26;20004;-60
2024/04/19 06:53:02;;;;;;;7.68;3.75;;;;;;;;;;5326397;26;20070;-59
2024/04/19 06:55:28;;;;;;;5.10;3.00;;;;;;;;;;5386023;26;20006;-59
2024/04/19 06:57:59;;;;;;;6.38;3.30;;;;;;;;;;5385730;26;20010;-59
2024/04/19 07:00:26;;;;;;;4.30;2.88;;;;;;;;;;5386157;26;20032;-60
2024/04/19 07:02:53;;;;;;;5.30;2.95;;;;;;;;;;5386169;26;20420;-59
2024/04/19 07:05:18;;;;;;;5.32;3.20;;;;;;;;;;5386849;26;20000;-58
2024/04/19 07:07:51;;;;;;;4.65;3.00;;;;;;;;;;5386214;26;20130;-59
2024/04/19 07:10:22;;;;;;;6.40;3.30;;;;;;;;;;5381795;26;20032;-59
2024/04/19 07:12:49;;;;;;;5.63;3.22;;;;;;;;;;5351363;26;20028;-59
2024/04/19 07:15:16;;;;;;;6.38;3.40;;;;;;;;;;5351265;26;20001;-58
2024/04/19 07:17:41;;;;;;;6.15;3.70;;;;;;;;;;5351235;26;19996;-60
2024/04/19 07:20:07;;;;;;;6.43;3.65;;;;;;;;;;5351091;26;20001;-60
2024/04/19 07:22:35;;;;;;;5.28;3.40;;;;;;;;;;5320757;26;20008;-59
2024/04/19 07:25:00;;;;;;;6.30;3.20;;;;;;;;;;5370581;26;20000;-60
2024/04/19 07:27:26;;;;;;;5.95;3.75;;;;;;;;;;5386313;26;20382;-59
2024/04/19 07:29:54;;;;;;;8.32;3.63;;;;;;;;;;5386023;26;20425;-60
2024/04/19 07:32:20;;;;;;;5.43;3.70;;;;;;;;;;5385730;26;19996;-61
2024/04/19 07:34:46;;;;;;;4.82;3.33;;;;;;;;;;5385704;26;20066;-60
2024/04/19 07:37:12;;;;;;;6.07;3.53;;;;;;;;;;5354315;26;20005;-58
2024/04/19 07:39:38;;;;;;;6.68;3.17;;;;;;;;;;5354605;26;20401;-57
2024/04/19 07:42:03;;;;;;;9.07;4.30;;;;;;;;;;5385527;26;20004;-59
2024/04/19 07:44:30;;;;;;;5.00;3.60;;;;;;;;;;5353576;26;20008;-59
2024/04/19 07:46:56;;;;;;;4.60;3.35;;;;;;;;;;5385334;26;20293;-60
2024/04/19 07:49:22;;;;;;;5.53;4.35;;;;;;;;;;5385115;26;20065;-60
2024/04/19 07:51:49;;;;;;;5.70;3.30;;;;;;;;;;5385447;26;20006;-58
2024/04/19 07:54:16;;;;;;;6.20;3.97;;;;;;;;;;5385120;26;19996;-57
2024/04/19 07:56:46;;;;;;;6.05;3.58;;;;;;;;;;5384105;26;20010;-57
2024/04/19 07:59:11;;;;;;;5.50;3.45;;;;;;;;;;5370041;26;19996;-59
2024/04/19 08:01:38;;;;;;;6.72;4.25;;;;;;;;;;5384910;26;20029;-58
2024/04/19 08:04:05;;;;;;;4.15;3.10;;;;;;;;;;5385352;26;20130;-59
2024/04/19 08:06:30;;;;;;;4.50;3.05;;;;;;;;;;5386032;26;20014;-60
2024/04/19 08:08:57;;;;;;;5.20;3.53;;;;;;;;;;5385242;26;19997;-59
2024/04/19 08:11:23;;;;;;;6.20;3.35;;;;;;;;;;5385447;26;20390;-59
2024/04/19 08:13:50;;;;;;;5.68;3.67;;;;;;;;;;5385447;26;20014;-56
2024/04/19 08:16:16;;;;;;;4.88;3.72;;;;;;;;;;5385095;26;20015;-59
2024/04/19 08:18:42;;;;;;;5.72;4.18;;;;;;;;;;5385156;26;20378;-59
2024/04/19 08:21:08;;;;;;;5.68;4.00;;;;;;;;;;5385433;26;20006;-58
2024/04/19 08:23:33;;;;;;;7.07;4.28;;;;;;;;;;5384497;26;19997;-59
2024/04/19 08:26:00;;;;;;;7.55;4.10;;;;;;;;;;5384772;26;20011;-58
2024/04/19 08:28:27;;;;;;;6.63;4.60;;;;;;;;;;5384664;26;20067;-59
2024/04/19 08:30:56;;;;;;;6.88;4.50;;;;;;;;;;5384824;26;20398;-59
2024/04/19 08:33:22;;;;;;;9.38;4.90;;;;;;;;;;5385668;26;20000;-58
2024/04/19 08:35:52;;;;;;;7.20;5.07;;;;;;;;;;5385284;26;20011;-59
2024/04/19 08:38:17;;;;;;;10.18;4.72;;;;;;;;;;5384858;26;20003;-59
2024/04/19 08:40:43;;;;;;;7.40;5.00;;;;;;;;;;5384686;26;20028;-60
2024/04/19 08:43:11;;;;;;;7.50;5.20;;;;;;;;;;5384605;26;19996;-59
2024/04/19 08:45:36;;;;;;;11.25;6.70;;;;;;;;;;5353539;26;20077;-60
2024/04/19 08:48:05;;;;;;;9.55;5.43;;;;;;;;;;5353800;26;19996;-60
2024/04/19 08:50:30;;;;;;;8.35;5.97;;;;;;;;;;5354103;26;20015;-60
2024/04/19 08:52:57;;;;;;;8.00;5.70;;;;;;;;;;5353315;26;20008;-59
2024/04/19 08:55:23;;;;;;;9.48;5.45;;;;;;;;;;5384373;26;20000;-61
2024/04/19 08:57:48;;;;;;;7.90;5.55;;;;;;;;;;5353294;26;20014;-60
2024/04/19 09:00:15;;;;;;;9.38;5.97;;;;;;;;;;5353593;26;20004;-61
2024/04/19 09:02:41;;;;;;;9.07;5.95;;;;;;;;;;5355262;26;20004;-60
2024/04/19 09:05:07;;;;;;;9.45;5.25;;;;;;;;;;5388223;26;20356;-60
2024/04/19 09:07:34;;;;;;;10.38;5.63;;;;;;;;;;5387862;26;20016;-60
2024/04/19 09:09:59;;;;;;;8.50;5.35;;;;;;;;;;5356585;26;20032;-59
2024/04/19 09:12:24;;;;;;;6.97;5.50;;;;;;;;;;5386906;26;20007;-60
2024/04/19 09:14:51;;;;;;;9.43;5.32;;;;;;;;;;5356713;26;20359;-59
2024/04/19 09:17:16;;;;;;;8.43;5.32;;;;;;;;;;5387612;26;19996;-60
2024/04/19 09:19:43;;;;;;;8.90;4.53;;;;;;;;;;5384298;26;20016;-60
2024/04/19 09:22:10;;;;;;;8.43;5.15;;;;;;;;;;5387402;26;20000;-60
2024/04/19 09:24:40;;;;;;;10.30;4.63;;;;;;;;;;5388467;26;20000;-61
2024/04/19 09:27:06;;;;;;;8.55;5.07;;;;;;;;;;5387546;26;20000;-60
2024/04/19 09:29:33;;;;;;;7.63;4.97;;;;;;;;;;5387911;26;20459;-58
2024/04/19 09:31:59;;;;;;;7.40;4.50;;;;;;;;;;5387840;26;20312;-58
2024/04/19 09:34:25;;;;;;;5.65;4.28;;;;;;;;;;5387324;26;20397;-60
2024/04/19 09:36:51;;;;;;;7.07;3.90;;;;;;;;;;5387754;26;20007;-59
2024/04/19 09:39:17;;;;;;;7.13;3.47;;;;;;;;;;5387684;26;20012;-59
2024/04/19 09:41:47;;;;;;;5.43;3.70;;;;;;;;;;5387579;26;20070;-59
2024/04/19 09:44:30;;;;;;;7.70;3.72;;;;;;;;;;5387205;26;20014;-59
2024/04/19 09:46:59;;;;;;;8.13;3.90;;;;;;;;;;5388217;26;20011;-58
2024/04/19 09:49:28;;;;;;;7.97;3.40;;;;;;;;;;5387673;26;20016;-60
2024/04/19 09:51:53;;;;;;;6.90;3.00;;;;;;;;;;5356301;26;20367;-59
2024/04/19 09:54:20;;;;;;;6.05;2.90;;;;;;;;;;5356287;26;20015;-58
2024/04/19 09:56:45;;;;;;;6.72;2.92;;;;;;;;;;5354657;26;20014;-60
2024/04/19 09:59:12;;;;;;;7.38;2.80;;;;;;;;;;5386862;26;19993;-60
2024/04/19 10:01:38;;;;;;;6.40;2.78;;;;;;;;;;5385496;26;20001;-59
2024/04/19 10:04:08;;;;;;;7.43;2.83;;;;;;;;;;5386604;26;20007;-59
2024/04/19 10:06:38;;;;;;;9.23;3.03;;;;;;;;;;5386916;26;19992;-60
2024/04/19 10:09:08;;;;;;;8.27;3.38;;;;;;;;;;5355933;26;20015;-61
2024/04/19 10:11:36;;;;;;;6.25;2.88;;;;;;;;;;5357205;26;20440;-59
2024/04/19 10:14:03;;;;;;;5.97;2.78;;;;;;;;;;5355794;26;20022;-57
2024/04/19 10:16:30;;;;;;;9.35;3.30;;;;;;;;;;5386281;26;20078;-60
2024/04/19 10:18:57;;;;;;;7.18;3.70;;;;;;;;;;5387061;26;20000;-60
2024/04/19 10:21:27;;;;;;;7.05;4.40;;;;;;;;;;5355905;26;20051;-59
2024/04/19 10:23:52;;;;;;;9.70;4.25;;;;;;;;;;5386718;26;20032;-59
2024/04/19 10:26:22;;;;;;;9.82;4.10;;;;;;;;;;5355781;26;20408;-61
2024/04/19 10:28:50;;;;;;;8.93;2.97;;;;;;;;;;5356462;26;20015;-61
2024/04/19 10:31:23;;;;;;;6.05;2.58;;;;;;;;;;5386507;26;20483;-60
2024/04/19 10:33:50;;;;;;;7.93;2.17;;;;;;;;;;5386559;26;20000;-58
2024/04/19 10:36:15;;;;;;;6.00;1.77;;;;;;;;;;5386304;26;19988;-59
2024/04/19 10:38:42;;;;;;;5.75;1.95;;;;;;;;;;5355358;26;20058;-60
2024/04/19 10:41:19;;;;;;;5.10;1.77;;;;;;;;;;5386246;26;20425;-59
2024/04/19 10:43:45;;;;;;;8.50;2.05;;;;;;;;;;5354626;26;20004;-59
2024/04/19 10:46:12;;;;;;;6.25;1.88;;;;;;;;;;5386515;26;20006;-59
2024/04/19 10:48:40;;;;;;;5.75;2.13;;;;;;;;;;5386378;26;20078;-59
2024/04/19 10:51:11;;;;;;;5.45;2.08;;;;;;;;;;5386122;26;20008;-59
2024/04/19 10:53:38;;;;;;;5.63;2.10;;;;;;;;;;5386734;26;20000;-59
2024/04/19 10:56:06;;;;;;;4.15;1.50;;;;;;;;;;5386660;26;20000;-60
2024/04/19 10:58:32;;;;;;;5.70;1.80;;;;;;;;;;5386564;26;20032;-60
2024/04/19 11:00:59;;;;;;;7.00;2.20;;;;;;;;;;5385342;26;20047;-59
2024/04/19 11:03:26;;;;;;;6.07;1.50;;;;;;;;;;5385356;26;20036;-60
2024/04/19 11:05:53;;;;;;;6.78;1.27;;;;;;;;;;5386758;26;20013;-61
2024/04/19 11:08:18;;;;;;;3.17;1.00;;;;;;;;;;5386068;26;19992;-57
2024/04/19 11:10:45;;;;;;;4.57;1.45;;;;;;;;;;5385838;26;20005;-61
2024/04/19 11:13:11;;;;;;;4.25;1.52;;;;;;;;;;5386040;26;19996;-61
2024/04/19 11:15:38;;;;;;;4.60;1.27;;;;;;;;;;5385979;26;19996;-61
2024/04/19 11:18:06;;;;;;;4.53;1.42;;;;;;;;;;5385966;26;20015;-61
2024/04/19 11:20:34;;;;;;;5.38;1.55;;;;;;;;;;5385822;26;20032;-60
2024/04/19 11:23:01;;;;;;;4.28;1.40;;;;;;;;;;5386064;26;19996;-61
2024/04/19 11:25:33;;;;;;;3.30;1.48;;;;;;;;;;5385241;26;20041;-61
2024/04/19 11:28:00;;;;;;;6.15;1.50;;;;;;;;;;5386094;26;19996;-60
2024/04/19 11:30:29;;;;;;;5.28;1.30;;;;;;;;;;5385995;26;20011;-59
2024/04/19 11:32:56;;;;;;;6.05;1.77;;;;;;;;;;5385797;26;20008;-61
2024/04/19 11:35:22;;;;;;;7.93;1.20;;;;;;;;;;5385521;26;20000;-60
2024/04/19 11:37:49;;;;;;;4.00;1.20;;;;;;;;;;5385712;26;20356;-60
2024/04/19 11:40:20;;;;;;;3.88;0.93;;;;;;;;;;5385653;26;20008;-59
2024/04/19 11:42:47;;;;;;;3.40;1.25;;;;;;;;;;5385694;26;20065;-60
2024/04/19 11:45:14;;;;;;;3.95;1.35;;;;;;;;;;5355427;26;20285;-60
2024/04/19 11:47:41;;;;;;;6.15;1.40;;;;;;;;;;5385965;26;19992;-59
2024/04/19 11:50:09;;;;;;;3.15;1.10;;;;;;;;;;5386339;26;20281;-58
2024/04/19 11:52:34;;;;;;;3.03;1.20;;;;;;;;;;5385848;26;20295;-60
2024/04/19 11:55:01;;;;;;;3.22;1.20;;;;;;;;;;5385540;26;20054;-59
2024/04/19 11:57:28;;;;;;;4.22;1.20;;;;;;;;;;5385808;26;20000;-59
2024/04/19 11:59:53;;;;;;;4.60;2.13;;;;;;;;;;5385690;26;20032;-59
2024/04/19 12:02:19;;;;;;;5.50;1.27;;;;;;;;;;5383700;26;20306;-59
2024/04/19 12:04:45;;;;;;;4.10;1.52;;;;;;;;;;5385307;26;20024;-57
2024/04/19 12:07:12;;;;;;;4.90;1.40;;;;;;;;;;5385277;26;20397;-56
2024/04/19 12:09:38;;;;;;;5.55;1.80;;;;;;;;;;5385164;26;20003;-60
2024/04/19 12:12:04;;;;;;;5.55;1.40;;;;;;;;;;5354285;26;20001;-58
2024/04/19 12:14:35;;;;;;;3.60;1.23;;;;;;;;;;5385517;26;20011;-58
2024/04/19 12:17:09;;;;;;;5.50;1.73;;;;;;;;;;5385129;26;19997;-59
2024/04/19 12:19:36;;;;;;;5.15;1.75;;;;;;;;;;5384969;26;19996;-59
2024/04/19 12:22:02;;;;;;;3.92;1.50;;;;;;;;;;5354522;26;20008;-59
2024/04/19 12:24:29;;;;;;;4.90;1.60;;;;;;;;;;5385211;26;20290;-57
2024/04/19 12:26:55;;;;;;;4.25;1.40;;;;;;;;;;5385017;26;20003;-56
2024/04/19 12:29:22;;;;;;;6.40;1.77;;;;;;;;;;5353634;26;20000;-59
2024/04/19 12:31:49;;;;;;;5.30;1.40;;;;;;;;;;5385017;26;20025;-58
2024/04/19 12:34:14;;;;;;;5.63;1.58;;;;;;;;;;5385155;26;20058;-56
2024/04/19 12:36:41;;;;;;;3.92;1.00;;;;;;;;;;5384547;26;20012;-57
2024/04/19 12:39:08;;;;;;;7.80;1.10;;;;;;;;;;5384890;26;20386;-58
2024/04/19 12:41:34;;;;;;;2.75;1.20;;;;;;;;;;5384816;26;20036;-56
2024/04/19 12:44:01;;;;;;;7.60;1.42;;;;;;;;;;5384923;26;20007;-57
2024/04/19 12:46:27;;;;;;;4.07;1.50;;;;;;;;;;5354096;26;20008;-56
2024/04/19 12:49:01;;;;;;;4.78;1.40;;;;;;;;;;5354061;26;20011;-57
2024/04/19 12:51:26;;;;;;;6.38;1.67;;;;;;;;;;5384574;26;19996;-56
2024/04/19 12:53:53;;;;;;;6.10;1.63;;;;;;;;;;5384752;26;20479;-57
2024/04/19 12:56:19;;;;;;;4.72;1.23;;;;;;;;;;5353607;26;19993;-55
2024/04/19 12:58:45;;;;;;;4.78;1.33;;;;;;;;;;5384202;26;20287;-56
2024/04/19 13:01:13;;;;;;;3.55;1.38;;;;;;;;;;5383494;26;19997;-57
2024/04/19 13:03:39;;;;;;;4.07;1.15;;;;;;;;;;5383480;26;20030;-57
2024/04/19 13:06:06;;;;;;;4.38;1.40;;;;;;;;;;5384487;26;19996;-58
2024/04/19 13:08:33;;;;;;;4.57;1.27;;;;;;;;;;5384086;26;20008;-53
2024/04/19 13:11:00;;;;;;;5.80;1.70;;;;;;;;;;5385452;26;20000;-57
2024/04/19 13:13:26;;;;;;;5.13;1.67;;;;;;;;;;5384220;26;20289;-58
2024/04/19 13:15:53;;;;;;;6.95;1.77;;;;;;;;;;5384398;26;20001;-55
2024/04/19 13:18:20;;;;;;;5.95;1.83;;;;;;;;;;5382865;26;20008;-57
2024/04/19 13:20:45;;;;;;;6.20;1.40;;;;;;;;;;5384072;26;20008;-56
2024/04/19 13:23:12;;;;;;;5.63;1.30;;;;;;;;;;5384374;26;20470;-53
2024/04/19 13:25:37;;;;;;;2.28;0.80;;;;;;;;;;5385307;26;20050;-57
2024/04/19 13:28:04;;;;;;;3.67;1.10;;;;;;;;;;5384208;26;19992;-58
2024/04/19 13:30:29;;;;;;;4.97;1.10;;;;;;;;;;5384209;26;20054;-57
2024/04/19 13:32:54;;;;;;;1.50;0.80;;;;;;;;;;5353416;26;20304;-55
2024/04/19 13:35:21;;;;;;;3.97;1.00;;;;;;;;;;5384199;26;19989;-57
2024/04/19 13:37:46;;;;;;;4.18;1.00;;;;;;;;;;5384288;26;19996;-57
2024/04/19 13:40:13;;;;;;;3.63;0.80;;;;;;;;;;5353220;26;20016;-57
2024/04/19 13:42:40;;;;;;;4.15;0.98;;;;;;;;;;5383997;26;20475;-58
2024/04/19 13:45:06;;;;;;;3.30;0.77;;;;;;;;;;5383400;26;20011;-57
2024/04/19 13:47:31;;;;;;;3.05;0.80;;;;;;;;;;5384395;26;19988;-58
2024/04/19 13:49:58;;;;;;;3.30;0.95;;;;;;;;;;5387226;26;19988;-57
2024/04/19 13:52:23;;;;;;;2.55;0.93;;;;;;;;;;5386897;26;19993;-57
2024/04/19 13:54:50;;;;;;;2.70;0.82;;;;;;;;;;5387417;26;20294;-57
2024/04/19 13:57:17;;;;;;;3.63;0.98;;;;;;;;;;5386940;26;20413;-58
2024/04/19 13:59:43;;;;;;;3.58;1.10;;;;;;;;;;5386290;26;20845;-58
2024/04/19 14:02:10;;;;;;;4.15;1.20;;;;;;;;;;5387884;26;20396;-56
2024/04/19 14:04:36;;;;;;;5.60;1.20;;;;;;;;;;5387123;26;20397;-59
2024/04/19 14:07:03;;;;;;;3.42;1.10;;;;;;;;;;5387183;26;19997;-58
2024/04/19 14:09:29;;;;;;;4.25;1.50;;;;;;;;;;5387184;26;20015;-59
2024/04/19 14:11:54;;;;;;;4.72;0.93;;;;;;;;;;5387159;26;20275;-59
2024/04/19 14:14:20;;;;;;;5.15;1.20;;;;;;;;;;5387135;26;20069;-58
2024/04/19 14:16:47;;;;;;;3.95;0.90;;;;;;;;;;5387686;26;20283;-56
2024/04/19 14:19:13;;;;;;;3.60;1.00;;;;;;;;;;5387582;26;20005;-58
2024/04/19 14:21:41;;;;;;;4.93;1.20;;;;;;;;;;5386606;26;20004;-58
2024/04/19 14:24:08;;;;;;;2.75;1.05;;;;;;;;;;5386715;26;20351;-57
2024/04/19 14:26:35;;;;;;;2.58;0.93;;;;;;;;;;5387094;26;20035;-54
2024/04/19 14:29:01;;;;;;;4.60;1.13;;;;;;;;;;5386867;26;20015;-56
2024/04/19 14:31:26;;;;;;;3.97;1.23;;;;;;;;;;5387069;26;20011;-56
2024/04/19 14:33:53;;;;;;;3.00;1.00;;;;;;;;;;5386702;26;19992;-57
2024/04/19 14:36:20;;;;;;;8.00;1.60;;;;;;;;;;5386995;26;20314;-57
2024/04/19 14:38:46;;;;;;;5.13;1.50;;;;;;;;;;5386700;26;19993;-55
2024/04/19 14:41:12;;;;;;;6.07;1.30;;;;;;;;;;5386832;26;19993;-55